Time;durP1;ratioP1;P1;durP2;ratioP2;P2;SDS_P1;SDS_P2;PMS_P1;PMS_P2;Temp;Humidity;BMP_temperature;BMP_pressure;BME280_temperature;BME280_humidity;BME280_pressure;Samples;Min_cycle;Max_cycle;Signal;HPM_P1;HPM_P2
2022/06/19 00:00:42;;;;;;;;;;;;;;;17.83;100.00;99331.81;5132661;28;20402;-55
2022/06/19 00:03:11;;;;;;;;;;;;;;;17.82;100.00;99335.78;5132197;28;20027;-53
2022/06/19 00:05:37;;;;;;;;;;;;;;;17.92;100.00;99336.09;5132363;28;19928;-50
2022/06/19 00:08:04;;;;;;;;;;;;;;;17.85;100.00;99340.50;5132149;28;19980;-50
2022/06/19 00:10:30;;;;;;;;;;;;;;;17.97;100.00;99332.91;5132137;28;19938;-53
2022/06/19 00:12:57;;;;;;;;;;;;;;;18.01;100.00;99331.66;5132067;28;20382;-52
2022/06/19 00:15:23;;;;;;;;;;;;;;;17.94;100.00;99336.47;5131999;28;19927;-53
2022/06/19 00:17:48;;;;;;;;;;;;;;;18.05;100.00;99326.84;5132379;28;19976;-52
2022/06/19 00:20:15;;;;;;;;;;;;;;;18.05;100.00;99321.28;5131841;28;19928;-53
2022/06/19 00:22:41;;;;;;;;;;;;;;;17.99;100.00;99325.72;5131425;27;20302;-53
2022/06/19 00:25:08;;;;;;;;;;;;;;;17.98;100.00;99320.59;5131864;28;19927;-51
2022/06/19 00:27:36;;;;;;;;;;;;;;;18.01;100.00;99311.44;5132069;28;19928;-52
2022/06/19 00:30:03;;;;;;;;;;;;;;;17.92;100.00;99308.34;5131835;28;19927;-51
2022/06/19 00:32:29;;;;;;;;;;;;;;;17.86;100.00;99300.50;5131918;28;19931;-53
2022/06/19 00:34:55;;;;;;;;;;;;;;;17.93;100.00;99301.63;5131616;28;19928;-54
2022/06/19 00:37:21;;;;;;;;;;;;;;;17.93;100.00;99302.41;5131796;28;19933;-52
2022/06/19 00:39:47;;;;;;;;;;;;;;;17.74;100.00;99314.06;5131552;28;20394;-51
2022/06/19 00:42:14;;;;;;;;;;;;;;;17.76;100.00;99304.16;5131525;28;19977;-53
2022/06/19 00:44:41;;;;;;;;;;;;;;;17.80;100.00;99304.91;5131639;28;20405;-52
2022/06/19 00:47:13;;;;;;;;;;;;;;;17.78;100.00;99295.41;5131734;28;20343;-53
2022/06/19 00:49:42;;;;;;;;;;;;;;;17.91;100.00;99270.75;5131751;28;20029;-53
2022/06/19 00:52:09;;;;;;;;;;;;;;;18.02;100.00;99246.44;5131447;28;19927;-50
2022/06/19 00:54:38;;;;;;;;;;;;;;;17.78;100.00;99246.28;5131794;28;19966;-52
2022/06/19 00:57:04;;;;;;;;;;;;;;;17.95;100.00;99229.88;5131344;28;19943;-51
2022/06/19 00:59:30;;;;;;;;;;;;;;;18.01;100.00;99237.34;5131520;28;19933;-51
2022/06/19 01:01:57;;;;;;;;;;;;;;;18.02;100.00;99249.22;5131350;28;19927;-49
2022/06/19 01:04:25;;;;;;;;;;;;;;;17.73;100.00;99245.94;5131191;28;19928;-50
2022/06/19 01:06:51;;;;;;;;;;;;;;;17.85;100.00;99212.94;5131295;28;19977;-52
2022/06/19 01:09:17;;;;;;;;;;;;;;;18.07;100.00;99204.38;5131097;28;20398;-52
2022/06/19 01:11:44;;;;;;;;;;;;;;;18.06;100.00;99173.09;5131372;28;20321;-50
2022/06/19 01:14:11;;;;;;;;;;;;;;;18.07;100.00;99177.44;5131059;28;20462;-50
2022/06/19 01:16:38;;;;;;;;;;;;;;;18.06;100.00;99148.13;5131323;28;19927;-49
2022/06/19 01:19:06;;;;;;;;;;;;;;;17.84;100.00;99127.41;5131308;28;19934;-49
2022/06/19 01:21:34;;;;;;;;;;;;;;;17.94;100.00;99086.88;5131347;28;19935;-52
2022/06/19 01:24:06;;;;;;;;;;;;;;;17.72;100.00;99059.38;5131136;28;20389;-53
2022/06/19 01:26:36;;;;;;;;;;;;;;;17.83;100.00;99068.38;5131282;28;19927;-51
2022/06/19 01:29:02;;;;;;;;;;;;;;;17.60;100.00;99071.81;5130999;28;20365;-50
2022/06/19 01:31:30;;;;;;;;;;;;;;;17.74;100.00;99068.06;5131268;28;19934;-53
2022/06/19 01:33:57;;;;;;;;;;;;;;;17.76;100.00;99059.31;5131534;27;19936;-50
2022/06/19 01:36:24;;;;;;;;;;;;;;;17.80;100.00;99074.75;5134545;28;19986;-50
2022/06/19 01:38:51;;;;;;;;;;;;;;;17.93;100.00;99080.53;5134778;28;19932;-51
2022/06/19 01:41:19;;;;;;;;;;;;;;;17.88;100.00;99081.00;5134661;28;19927;-49
2022/06/19 01:43:47;;;;;;;;;;;;;;;17.96;100.00;99081.66;5134949;28;19932;-50
2022/06/19 01:46:14;;;;;;;;;;;;;;;17.52;100.00;99069.53;5134328;28;19928;-50
2022/06/19 01:48:40;;;;;;;;;;;;;;;17.64;100.00;99083.63;5134748;28;20425;-51
2022/06/19 01:51:06;;;;;;;;;;;;;;;17.91;100.00;99104.34;5134317;28;19953;-51
2022/06/19 01:53:36;;;;;;;;;;;;;;;17.92;100.00;99042.91;5134519;28;19927;-54
2022/06/19 01:56:02;;;;;;;;;;;;;;;18.10;100.00;99029.56;5134297;28;19934;-49
2022/06/19 01:58:32;;;;;;;;;;;;;;;17.57;100.00;99031.06;5134301;28;19927;-54
2022/06/19 02:00:58;;;;;;;;;;;;;;;17.85;100.00;99012.50;5134321;28;19934;-54
2022/06/19 02:03:28;;;;;;;;;;;;;;;17.77;100.00;99009.03;5134034;28;19933;-49
2022/06/19 02:05:54;;;;;;;;;;;;;;;17.79;100.00;99005.84;5134178;28;19927;-53
2022/06/19 02:08:21;;;;;;;;;;;;;;;17.94;100.00;99056.34;5133857;28;20021;-51
2022/06/19 02:10:47;;;;;;;;;;;;;;;17.57;100.00;99025.50;5134491;28;19935;-53
2022/06/19 02:13:15;;;;;;;;;;;;;;;17.83;100.00;99037.88;5133998;28;19927;-52
2022/06/19 02:15:41;;;;;;;;;;;;;;;17.70;100.00;99034.06;5134205;28;20382;-49
2022/06/19 02:18:09;;;;;;;;;;;;;;;18.01;100.00;99011.88;5133974;28;20279;-53
2022/06/19 02:20:35;;;;;;;;;;;;;;;17.85;100.00;99006.94;5134187;28;19933;-54
2022/06/19 02:23:05;;;;;;;;;;;;;;;17.87;100.00;99005.34;5133962;28;20287;-52
2022/06/19 02:25:31;;;;;;;;;;;;;;;18.08;100.00;99014.53;5133968;28;19928;-50
2022/06/19 02:27:57;;;;;;;;;;;;;;;17.98;100.00;98982.19;5133865;28;19927;-52
2022/06/19 02:30:23;;;;;;;;;;;;;;;17.97;100.00;98956.47;5133684;28;19934;-51
2022/06/19 02:32:51;;;;;;;;;;;;;;;17.86;100.00;98953.06;5133703;28;19972;-54
2022/06/19 02:35:19;;;;;;;;;;;;;;;18.31;100.00;98889.69;5133578;28;19933;-52
2022/06/19 02:37:46;;;;;;;;;;;;;;;18.65;100.00;98851.81;5133842;28;20018;-49
2022/06/19 02:40:19;;;;;;;;;;;;;;;18.57;100.00;98749.22;5133637;28;19972;-50
2022/06/19 02:42:46;;;;;;;;;;;;;;;19.17;100.00;98701.88;5133878;28;19976;-51
2022/06/19 02:45:14;;;;;;;;;;;;;;;18.77;100.00;98609.63;5132920;27;19935;-54
2022/06/19 02:47:40;;;;;;;;;;;;;;;19.08;100.00;98606.47;5133689;28;19931;-53
2022/06/19 02:50:07;;;;;;;;;;;;;;;19.18;100.00;98633.97;5133432;28;19967;-54
2022/06/19 02:52:34;;;;;;;;;;;;;;;18.90;100.00;98543.84;5133365;28;19927;-50
2022/06/19 02:55:00;;;;;;;;;;;;;;;19.16;100.00;98566.97;5133502;28;19928;-54
2022/06/19 02:57:26;;;;;;;;;;;;;;;19.03;100.00;98574.47;5133214;28;19934;-53
2022/06/19 02:59:52;;;;;;;;;;;;;;;19.48;100.00;98545.84;5133571;28;20022;-51
2022/06/19 03:02:19;;;;;;;;;;;;;;;19.62;100.00;98497.38;5133138;28;20348;-53
2022/06/19 03:04:47;;;;;;;;;;;;;;;19.32;100.00;98360.47;5133363;28;20287;-54
2022/06/19 03:07:13;;;;;;;;;;;;;;;19.62;100.00;98450.91;5133141;28;19928;-54
2022/06/19 03:09:40;;;;;;;;;;;;;;;19.75;100.00;98384.19;5133494;28;19993;-52
2022/06/19 03:12:07;;;;;;;;;;;;;;;19.75;100.00;98348.03;5132925;28;19927;-53
2022/06/19 03:14:33;;;;;;;;;;;;;;;20.15;100.00;98325.28;5132998;28;19927;-54
2022/06/19 03:16:58;;;;;;;;;;;;;;;19.93;100.00;98241.78;5133108;28;20018;-54
2022/06/19 03:19:24;;;;;;;;;;;;;;;20.10;100.00;98201.41;5133345;28;19927;-54
2022/06/19 03:21:50;;;;;;;;;;;;;;;19.85;100.00;98210.63;5132909;28;20394;-54
2022/06/19 03:24:16;;;;;;;;;;;;;;;19.94;100.00;98308.06;5132846;28;19972;-53
2022/06/19 03:26:43;;;;;;;;;;;;;;;19.89;100.00;98394.09;5132889;28;19927;-53
2022/06/19 03:29:09;;;;;;;;;;;;;;;19.56;100.00;98380.41;5132749;28;19938;-55
2022/06/19 03:31:36;;;;;;;;;;;;;;;19.52;100.00;98374.16;5132709;28;19934;-52
2022/06/19 03:34:02;;;;;;;;;;;;;;;19.52;100.00;98426.97;5132606;28;19981;-51
2022/06/19 03:36:28;;;;;;;;;;;;;;;19.37;100.00;98473.88;5132865;28;19927;-54
2022/06/19 03:38:53;;;;;;;;;;;;;;;19.06;100.00;98495.81;5132671;28;19927;-54
2022/06/19 03:41:19;;;;;;;;;;;;;;;19.43;100.00;98504.72;5133013;28;19996;-52
2022/06/19 03:43:46;;;;;;;;;;;;;;;19.04;100.00;98503.78;5132947;28;20252;-52
2022/06/19 03:46:13;;;;;;;;;;;;;;;19.18;100.00;98522.06;5132655;28;19934;-51
2022/06/19 03:48:39;;;;;;;;;;;;;;;19.34;100.00;98535.13;5132653;28;19931;-53
2022/06/19 03:51:05;;;;;;;;;;;;;;;19.42;100.00;98515.03;5132401;28;20026;-50
2022/06/19 03:53:31;;;;;;;;;;;;;;;19.58;100.00;98485.59;5132481;28;19928;-52
2022/06/19 03:55:57;;;;;;;;;;;;;;;19.65;100.00;98505.66;5132063;27;19927;-50
2022/06/19 03:58:23;;;;;;;;;;;;;;;19.52;100.00;98472.22;5131678;28;19934;-53
2022/06/19 04:00:49;;;;;;;;;;;;;;;19.77;100.00;98506.13;5132132;28;19928;-50
2022/06/19 04:03:15;;;;;;;;;;;;;;;19.66;100.00;98468.31;5132633;28;19935;-52
2022/06/19 04:05:41;;;;;;;;;;;;;;;19.72;100.00;98482.41;5132196;28;19927;-53
2022/06/19 04:08:07;;;;;;;;;;;;;;;19.58;100.00;98511.41;5132472;28;19927;-50
2022/06/19 04:10:34;;;;;;;;;;;;;;;19.89;100.00;98488.66;5132147;28;19931;-54
2022/06/19 04:13:00;;;;;;;;;;;;;;;19.91;100.00;98497.34;5132215;28;20326;-53
2022/06/19 04:15:25;;;;;;;;;;;;;;;19.73;100.00;98511.81;5132057;28;19952;-52
2022/06/19 04:17:52;;;;;;;;;;;;;;;19.88;100.00;98514.94;5132088;28;19927;-50
2022/06/19 04:20:18;;;;;;;;;;;;;;;19.77;100.00;98517.25;5131989;28;19927;-53
2022/06/19 04:22:44;;;;;;;;;;;;;;;20.34;100.00;98482.09;5131893;28;19966;-51
2022/06/19 04:25:13;;;;;;;;;;;;;;;20.25;100.00;98407.63;5131897;28;19934;-54
2022/06/19 04:27:39;;;;;;;;;;;;;;;20.84;100.00;98391.31;5132037;28;20000;-51
2022/06/19 04:30:06;;;;;;;;;;;;;;;21.15;100.00;98288.22;5132051;28;19928;-51
2022/06/19 04:32:32;;;;;;;;;;;;;;;21.16;100.00;98142.09;5131690;28;19927;-54
2022/06/19 04:34:58;;;;;;;;;;;;;;;21.52;100.00;98179.63;5131922;28;19927;-53
2022/06/19 04:37:24;;;;;;;;;;;;;;;21.56;100.00;98069.50;5131766;28;19927;-53
2022/06/19 04:39:50;;;;;;;;;;;;;;;22.02;100.00;97994.06;5131970;28;19950;-54
2022/06/19 04:42:16;;;;;;;;;;;;;;;22.32;100.00;97932.84;5131656;28;20302;-54
2022/06/19 04:44:42;;;;;;;;;;;;;;;23.15;100.00;97815.63;5131682;28;19950;-54
2022/06/19 04:47:08;;;;;;;;;;;;;;;23.30;100.00;97745.72;5131698;28;19927;-55
2022/06/19 04:49:34;;;;;;;;;;;;;;;23.13;100.00;97699.97;5131752;28;19927;-55
2022/06/19 04:52:01;;;;;;;;;;;;;;;23.42;100.00;97685.91;5131594;28;19974;-53
2022/06/19 04:54:27;;;;;;;;;;;;;;;24.01;100.00;97651.28;5131676;28;19935;-54
2022/06/19 04:56:53;;;;;;;;;;;;;;;24.15;100.00;97632.84;5131565;28;19927;-53
2022/06/19 04:59:18;;;;;;;;;;;;;;;24.36;100.00;97639.16;5131511;28;20435;-55
2022/06/19 05:01:44;;;;;;;;;;;;;;;24.15;100.00;97627.25;5131710;28;20389;-54
2022/06/19 05:04:12;;;;;;;;;;;;;;;24.12;100.00;97639.44;5131331;28;19928;-55
2022/06/19 05:06:38;;;;;;;;;;;;;;;24.29;100.00;97631.19;5131436;28;19927;-55
2022/06/19 05:09:05;;;;;;;;;;;;;;;24.67;100.00;97607.63;5131037;27;19927;-55
2022/06/19 05:11:32;;;;;;;;;;;;;;;24.84;100.00;97599.31;5131427;28;19931;-56
2022/06/19 05:13:58;;;;;;;;;;;;;;;25.09;100.00;97606.88;5131098;28;20300;-54
2022/06/19 05:16:24;;;;;;;;;;;;;;;25.02;100.00;97603.75;5131236;28;19942;-56
2022/06/19 05:18:52;;;;;;;;;;;;;;;25.25;100.00;97607.47;5131631;28;19927;-55
2022/06/19 05:21:19;;;;;;;;;;;;;;;25.43;100.00;97595.09;5130953;28;19927;-55
2022/06/19 05:23:46;;;;;;;;;;;;;;;25.26;100.00;97606.22;5131313;28;19931;-55
2022/06/19 05:26:16;;;;;;;;;;;;;;;25.13;100.00;97595.44;5130859;28;19975;-55
2022/06/19 05:28:42;;;;;;;;;;;;;;;25.48;100.00;97591.50;5131158;28;19928;-56
2022/06/19 05:31:08;;;;;;;;;;;;;;;25.94;100.00;97602.41;5130999;28;19928;-55
2022/06/19 05:33:34;;;;;;;;;;;;;;;26.81;100.00;97600.66;5131136;28;19934;-57
2022/06/19 05:36:00;;;;;;;;;;;;;;;27.55;100.00;97668.78;5130975;28;19927;-56
2022/06/19 05:38:27;;;;;;;;;;;;;;;27.53;100.00;97644.00;5131141;28;19995;-57
2022/06/19 05:40:53;;;;;;;;;;;;;;;27.12;100.00;97675.50;5130799;28;19935;-56
2022/06/19 05:43:20;;;;;;;;;;;;;;;26.89;100.00;97648.69;5130899;28;19931;-57
2022/06/19 05:45:50;;;;;;;;;;;;;;;26.41;100.00;97627.22;5130670;28;20343;-57
2022/06/19 05:48:16;;;;;;;;;;;;;;;26.32;100.00;97621.84;5130629;28;20032;-57
2022/06/19 05:50:42;;;;;;;;;;;;;;;26.39;100.00;97610.09;5130595;28;19927;-57
2022/06/19 05:53:08;;;;;;;;;;;;;;;26.47;100.00;97602.72;5130534;28;20305;-57
2022/06/19 05:55:34;;;;;;;;;;;;;;;27.01;100.00;97613.66;5130857;28;19928;-57
2022/06/19 05:58:00;;;;;;;;;;;;;;;26.83;100.00;97622.66;5130600;28;20439;-55
2022/06/19 06:00:26;;;;;;;;;;;;;;;26.64;100.00;97619.59;5130940;28;19931;-57
2022/06/19 06:02:52;;;;;;;;;;;;;;;26.86;100.00;97611.16;5130420;28;19938;-57
2022/06/19 06:05:19;;;;;;;;;;;;;;;26.94;100.00;97622.63;5130696;28;19928;-55
2022/06/19 06:07:45;;;;;;;;;;;;;;;27.72;100.00;97669.50;5130517;28;20018;-57
2022/06/19 06:10:11;;;;;;;;;;;;;;;28.00;100.00;97688.38;5130553;28;20361;-57
2022/06/19 06:12:37;;;;;;;;;;;;;;;28.82;100.00;97712.97;5130421;28;19934;-57
2022/06/19 06:15:04;;;;;;;;;;;;;;;28.92;100.00;97700.06;5130700;28;20420;-57
2022/06/19 06:17:30;;;;;;;;;;;;;;;29.33;100.00;97747.19;5130378;28;20356;-57
2022/06/19 06:19:56;;;;;;;;;;;;;;;29.71;100.00;97741.69;5130904;27;19933;-57
2022/06/19 06:22:22;;;;;;;;;;;;;;;29.75;100.00;97753.47;5134007;28;19928;-57
2022/06/19 06:24:48;;;;;;;;;;;;;;;30.02;100.00;97780.66;5133974;28;19949;-57
2022/06/19 06:27:14;;;;;;;;;;;;;;;30.16;100.00;97834.44;5133999;28;20301;-57
2022/06/19 06:29:40;;;;;;;;;;;;;;;30.04;100.00;97807.59;5134051;28;20345;-58
2022/06/19 06:32:06;;;;;;;;;;;;;;;30.00;100.00;97836.16;5134095;28;19934;-57
2022/06/19 06:34:34;;;;;;;;;;;;;;;30.24;100.00;97793.75;5133797;28;19927;-58
2022/06/19 06:37:00;;;;;;;;;;;;;;;30.80;100.00;97822.63;5133786;28;20454;-58
2022/06/19 06:39:25;;;;;;;;;;;;;;;30.83;100.00;97855.50;5133736;28;19935;-58
2022/06/19 06:41:51;;;;;;;;;;;;;;;31.00;100.00;97895.66;5133534;28;20348;-58
2022/06/19 06:44:17;;;;;;;;;;;;;;;31.13;100.00;97875.16;5133471;28;19927;-58
2022/06/19 06:46:43;;;;;;;;;;;;;;;31.27;100.00;97882.38;5133364;28;19927;-57
2022/06/19 06:49:10;;;;;;;;;;;;;;;31.38;100.00;97887.91;5133511;28;20301;-58
2022/06/19 06:51:36;;;;;;;;;;;;;;;31.18;100.00;97851.63;5133524;28;19976;-58
2022/06/19 06:54:02;;;;;;;;;;;;;;;31.16;100.00;97899.56;5133599;28;19949;-58
2022/06/19 06:56:31;;;;;;;;;;;;;;;31.52;100.00;97888.69;5133292;28;20481;-58
2022/06/19 06:58:57;;;;;;;;;;;;;;;31.34;100.00;97866.88;5133313;28;19934;-58
2022/06/19 07:01:23;;;;;;;;;;;;;;;31.72;100.00;97907.19;5133301;28;19927;-58
2022/06/19 07:03:52;;;;;;;;;;;;;;;32.08;100.00;97924.63;5133377;28;19927;-58
2022/06/19 07:06:17;;;;;;;;;;;;;;;31.87;100.00;97886.84;5133172;28;19927;-58
2022/06/19 07:08:44;;;;;;;;;;;;;;;31.99;100.00;97922.22;5133196;28;19928;-58
2022/06/19 07:11:14;;;;;;;;;;;;;;;32.15;100.00;97880.69;5133173;28;19927;-58
2022/06/19 07:13:40;;;;;;;;;;;;;;;32.13;100.00;97919.41;5132927;28;19941;-58
2022/06/19 07:16:06;;;;;;;;;;;;;;;32.01;100.00;97907.50;5133302;28;19928;-57
2022/06/19 07:18:32;;;;;;;;;;;;;;;32.15;100.00;97920.38;5133052;28;19950;-58
2022/06/19 07:20:58;;;;;;;;;;;;;;;32.29;100.00;97926.81;5133092;28;20389;-58
2022/06/19 07:23:24;;;;;;;;;;;;;;;32.13;100.00;97919.41;5132968;28;19927;-58
2022/06/19 07:25:51;;;;;;;;;;;;;;;32.49;100.00;97942.47;5133030;28;19976;-58
2022/06/19 07:28:17;;;;;;;;;;;;;;;32.69;100.00;97907.78;5132828;28;19934;-58
2022/06/19 07:30:43;;;;;;;;;;;;;;;32.90;100.00;97949.66;5132884;27;19927;-58
2022/06/19 07:33:09;;;;;;;;;;;;;;;32.77;100.00;97947.59;5132836;28;20460;-58
2022/06/19 07:35:35;;;;;;;;;;;;;;;32.60;100.00;97939.41;5132844;28;19928;-58
2022/06/19 07:38:01;;;;;;;;;;;;;;;32.89;100.00;97922.56;5132686;28;19934;-58
2022/06/19 07:40:27;;;;;;;;;;;;;;;33.03;100.00;97949.66;5132669;28;19981;-58
2022/06/19 07:42:53;;;;;;;;;;;;;;;33.19;100.00;97968.41;5132543;28;19928;-58
2022/06/19 07:45:19;;;;;;;;;;;;;;;33.47;100.00;97947.13;5132787;28;19927;-58
2022/06/19 07:50:29;;;;;;;;;;;;;;;32.86;100.00;97918.00;5132633;28;20326;-58
2022/06/19 07:52:55;;;;;;;;;;;;;;;33.19;100.00;97940.00;5132550;28;20018;-58
2022/06/19 07:55:22;;;;;;;;;;;;;;;33.57;100.00;97942.53;5132398;28;19928;-58
2022/06/19 07:57:49;;;;;;;;;;;;;;;33.37;100.00;97926.19;5132506;28;19928;-58
2022/06/19 08:00:18;;;;;;;;;;;;;;;33.42;100.00;97936.66;5132266;28;19927;-58
2022/06/19 08:02:45;;;;;;;;;;;;;;;33.55;100.00;97942.31;5132350;28;20386;-58
2022/06/19 08:05:12;;;;;;;;;;;;;;;33.56;100.00;97926.03;5132381;28;19927;-58
2022/06/19 08:07:38;;;;;;;;;;;;;;;33.73;100.00;97966.94;5132306;28;19995;-58
2022/06/19 08:10:04;;;;;;;;;;;;;;;33.18;100.00;97940.56;5132149;28;20272;-58
2022/06/19 08:12:30;;;;;;;;;;;;;;;32.90;100.00;97953.25;5132125;28;20019;-58
2022/06/19 08:14:56;;;;;;;;;;;;;;;33.33;100.00;97920.09;5132093;28;19927;-58
2022/06/19 08:17:23;;;;;;;;;;;;;;;33.46;100.00;97937.84;5132070;28;19927;-58
2022/06/19 08:19:48;;;;;;;;;;;;;;;33.08;100.00;97930.97;5132085;28;19927;-58
2022/06/19 08:22:14;;;;;;;;;;;;;;;33.26;100.00;97935.75;5132001;28;19934;-58
2022/06/19 08:24:40;;;;;;;;;;;;;;;33.57;100.00;97930.41;5132151;28;20072;-58
2022/06/19 08:27:08;;;;;;;;;;;;;;;33.69;100.00;97923.91;5131280;28;20335;-58
2022/06/19 08:29:34;;;;;;;;;;;;;;;33.87;100.00;97932.75;5131968;28;19927;-58
2022/06/19 08:32:00;;;;;;;;;;;;;;;33.84;100.00;97936.72;5131806;28;20069;-58
2022/06/19 08:34:27;;;;;;;;;;;;;;;33.90;100.00;97945.88;5131820;28;20418;-58
2022/06/19 08:36:53;;;;;;;;;;;;;;;33.26;100.00;97984.78;5131788;28;19933;-58
2022/06/19 08:39:21;;;;;;;;;;;;;;;33.90;100.00;97960.84;5131663;28;19927;-58
2022/06/19 08:41:57;;;;;;;;;;;;;;;34.06;100.00;97975.22;5131430;28;19931;-58
2022/06/19 08:44:47;;;;;;;;;;;;;;;34.25;100.00;97955.06;5131210;27;19927;-58
2022/06/19 08:47:23;;;;;;;;;;;;;;;34.50;100.00;97961.16;5106662;28;19928;-58
2022/06/19 08:49:57;;;;;;;;;;;;;;;33.95;100.00;97974.13;5131593;28;19988;-58
2022/06/19 08:52:26;;;;;;;;;;;;;;;34.51;100.00;97971.94;5131465;28;19927;-58
2022/06/19 08:54:59;;;;;;;;;;;;;;;34.34;100.00;97963.13;5131436;28;20028;-58
2022/06/19 08:57:29;;;;;;;;;;;;;;;34.19;100.00;97970.22;5131562;28;19932;-58
2022/06/19 09:00:03;;;;;;;;;;;;;;;34.05;100.00;97976.53;5131267;28;19936;-58
2022/06/19 09:02:34;;;;;;;;;;;;;;;34.48;100.00;97955.25;5131370;28;19935;-58
2022/06/19 09:07:55;;;;;;;;;;;;;;;34.59;100.00;97977.72;5131483;28;19935;-58
2022/06/19 09:10:27;;;;;;;;;;;;;;;34.46;100.00;97926.56;5131593;28;19927;-58
2022/06/19 09:13:06;;;;;;;;;;;;;;;34.19;100.00;97950.31;5131014;28;19927;-58
2022/06/19 09:15:35;;;;;;;;;;;;;;;34.16;100.00;97951.44;5131491;28;19927;-58
2022/06/19 09:18:03;;;;;;;;;;;;;;;34.51;100.00;97949.19;5131523;28;19970;-58
2022/06/19 09:20:33;;;;;;;;;;;;;;;34.26;100.00;97926.09;5131288;28;19927;-58
2022/06/19 09:23:26;;;;;;;;;;;;;;;33.82;100.00;97971.38;5130950;28;19984;-58
2022/06/19 09:25:55;;;;;;;;;;;;;;;34.20;100.00;97971.75;5131079;28;20018;-58
2022/06/19 09:28:25;;;;;;;;;;;;;;;34.32;100.00;97960.84;5131097;28;20026;-57
2022/06/19 09:30:54;;;;;;;;;;;;;;;34.96;100.00;97961.44;5130864;28;19928;-58
2022/06/19 09:33:23;;;;;;;;;;;;;;;34.73;100.00;97941.38;5130734;28;19927;-58
2022/06/19 09:35:53;;;;;;;;;;;;;;;34.62;100.00;97891.22;5130850;28;19931;-58
2022/06/19 09:38:22;;;;;;;;;;;;;;;34.69;100.00;97906.81;5131159;28;19931;-58
2022/06/19 09:40:50;;;;;;;;;;;;;;;34.52;100.00;97956.44;5131058;28;19927;-58
2022/06/19 09:43:20;;;;;;;;;;;;;;;34.67;100.00;97928.06;5130860;28;20294;-57
2022/06/19 09:45:51;;;;;;;;;;;;;;;34.45;100.00;97931.50;5131070;28;19938;-58
2022/06/19 09:48:21;;;;;;;;;;;;;;;34.16;100.00;97956.34;5130916;28;20031;-57
2022/06/19 09:50:49;;;;;;;;;;;;;;;34.77;100.00;97956.03;5130923;28;19927;-57
2022/06/19 09:53:17;;;;;;;;;;;;;;;34.13;100.00;97935.47;5130510;28;19927;-57
2022/06/19 09:55:45;;;;;;;;;;;;;;;34.46;100.00;97952.19;5132590;27;19927;-57
2022/06/19 09:58:14;;;;;;;;;;;;;;;34.75;100.00;97930.19;5134246;28;19927;-58
2022/06/19 10:00:42;;;;;;;;;;;;;;;34.98;100.00;97944.53;5134529;28;20343;-58
2022/06/19 10:03:14;;;;;;;;;;;;;;;34.70;100.00;97942.50;5134084;28;19972;-58
2022/06/19 10:05:42;;;;;;;;;;;;;;;35.00;100.00;97921.97;5134323;28;19934;-58
2022/06/19 10:08:10;;;;;;;;;;;;;;;34.89;100.00;97940.16;5134409;28;20017;-57
2022/06/19 10:10:40;;;;;;;;;;;;;;;34.57;100.00;97903.53;5134189;28;19976;-57
2022/06/19 10:13:09;;;;;;;;;;;;;;;34.05;100.00;97903.34;5133827;28;19928;-57
2022/06/19 10:15:36;;;;;;;;;;;;;;;34.17;100.00;97941.56;5134119;28;20317;-57
2022/06/19 10:18:07;;;;;;;;;;;;;;;33.85;100.00;97893.50;5134254;28;20434;-57
2022/06/19 10:20:38;;;;;;;;;;;;;;;33.43;100.00;97896.34;5134059;28;19927;-57
2022/06/19 10:23:10;;;;;;;;;;;;;;;33.54;100.00;97878.28;5133877;28;19935;-57
2022/06/19 10:25:52;;;;;;;;;;;;;;;32.96;100.00;97831.13;5133927;28;20056;-57
2022/06/19 10:28:22;;;;;;;;;;;;;;;32.70;100.00;97769.50;5133975;28;19927;-57
2022/06/19 10:30:54;;;;;;;;;;;;;;;32.63;100.00;97815.56;5134031;28;19981;-57
2022/06/19 10:33:26;;;;;;;;;;;;;;;32.59;100.00;97767.69;5133613;28;19928;-57
2022/06/19 10:35:55;;;;;;;;;;;;;;;32.83;100.00;97728.97;5134132;28;19931;-57
2022/06/19 10:38:27;;;;;;;;;;;;;;;32.78;100.00;97748.38;5133628;28;19935;-57
2022/06/19 10:40:59;;;;;;;;;;;;;;;32.78;100.00;97773.16;5133577;28;19928;-57
2022/06/19 10:43:35;;;;;;;;;;;;;;;32.75;100.00;97751.56;5134007;28;19927;-57
2022/06/19 10:46:05;;;;;;;;;;;;;;;32.45;100.00;97764.09;5133563;28;19928;-57
2022/06/19 10:48:36;;;;;;;;;;;;;;;32.77;100.00;97826.31;5133663;28;19927;-57
2022/06/19 10:51:09;;;;;;;;;;;;;;;32.12;100.00;97805.22;5133517;28;19934;-57
2022/06/19 10:53:40;;;;;;;;;;;;;;;32.25;100.00;97819.41;5133692;28;19980;-56
2022/06/19 10:56:09;;;;;;;;;;;;;;;32.26;100.00;97814.50;5133481;28;20397;-57
2022/06/19 10:58:36;;;;;;;;;;;;;;;31.92;100.00;97763.38;5133341;28;20434;-55
2022/06/19 11:01:03;;;;;;;;;;;;;;;31.90;100.00;97774.50;5133294;28;19928;-57
2022/06/19 11:06:18;;;;;;;;;;;;;;;31.54;100.00;97761.47;5122130;27;19927;-56
2022/06/19 11:08:45;;;;;;;;;;;;;;;31.32;100.00;97765.50;5133165;28;19928;-57
2022/06/19 11:11:15;;;;;;;;;;;;;;;31.50;100.00;97752.56;5133207;28;20076;-55
2022/06/19 11:13:59;;;;;;;;;;;;;;;31.06;100.00;97680.50;5132974;28;19927;-55
2022/06/19 11:16:26;;;;;;;;;;;;;;;30.64;100.00;97677.28;5133168;28;20022;-57
2022/06/19 11:18:54;;;;;;;;;;;;;;;31.25;100.00;97720.03;5132926;28;20363;-57
2022/06/19 11:21:23;;;;;;;;;;;;;;;31.13;100.00;97680.59;5133065;28;19931;-57
2022/06/19 11:23:53;;;;;;;;;;;;;;;31.21;100.00;97686.38;5132885;28;19996;-55
2022/06/19 11:26:21;;;;;;;;;;;;;;;31.35;100.00;97648.28;5133117;28;19977;-57
2022/06/19 11:28:50;;;;;;;;;;;;;;;31.33;100.00;97690.56;5132827;28;20591;-55
2022/06/19 11:31:18;;;;;;;;;;;;;;;31.20;100.00;97678.44;5132836;28;19972;-56
2022/06/19 11:33:45;;;;;;;;;;;;;;;31.24;100.00;97606.03;5133012;28;19927;-55
2022/06/19 11:36:24;;;;;;;;;;;;;;;30.85;100.00;97677.47;5132725;28;19927;-56
2022/06/19 11:38:52;;;;;;;;;;;;;;;31.22;100.00;97699.22;5132974;28;20412;-57
2022/06/19 11:41:26;;;;;;;;;;;;;;;31.23;100.00;97671.69;5132678;28;19931;-56
2022/06/19 11:44:01;;;;;;;;;;;;;;;30.88;100.00;97637.56;5132746;28;20018;-55
2022/06/19 11:46:27;;;;;;;;;;;;;;;30.75;100.00;97588.66;5132679;28;20404;-56
2022/06/19 11:48:53;;;;;;;;;;;;;;;30.65;100.00;97605.25;5132733;28;19935;-56
2022/06/19 11:51:21;;;;;;;;;;;;;;;30.70;100.00;97570.47;5132814;28;19935;-56
2022/06/19 11:53:52;;;;;;;;;;;;;;;30.30;100.00;97547.75;5132316;28;19927;-56
2022/06/19 11:56:23;;;;;;;;;;;;;;;30.71;100.00;97541.63;5132587;28;19975;-55
2022/06/19 11:58:53;;;;;;;;;;;;;;;30.58;100.00;97558.59;5132292;28;20032;-56
2022/06/19 12:01:20;;;;;;;;;;;;;;;30.72;100.00;97584.81;5132673;28;19938;-56
2022/06/19 12:03:48;;;;;;;;;;;;;;;30.44;100.00;97518.22;5132174;28;20317;-56
2022/06/19 12:06:15;;;;;;;;;;;;;;;30.42;100.00;97556.81;5132373;28;20017;-56
2022/06/19 12:08:50;;;;;;;;;;;;;;;30.54;100.00;97510.06;5132116;28;19952;-57
2022/06/19 12:11:31;;;;;;;;;;;;;;;30.60;100.00;97501.50;5132577;28;19932;-55
2022/06/19 12:13:57;;;;;;;;;;;;;;;30.61;100.00;97519.97;5132340;28;19927;-54
2022/06/19 12:16:24;;;;;;;;;;;;;;;30.21;100.00;97460.56;5132085;28;20413;-56
2022/06/19 12:18:50;;;;;;;;;;;;;;;30.57;100.00;97440.38;5131178;27;19934;-57
2022/06/19 12:21:18;;;;;;;;;;;;;;;30.60;100.00;97450.59;5131968;28;19928;-55
2022/06/19 12:23:49;;;;;;;;;;;;;;;30.71;100.00;97444.72;5132128;28;19927;-55
2022/06/19 12:26:20;;;;;;;;;;;;;;;30.46;100.00;97470.38;5131888;28;19934;-57
2022/06/19 12:28:50;;;;;;;;;;;;;;;30.53;100.00;97456.91;5132365;28;19927;-55
2022/06/19 12:31:17;;;;;;;;;;;;;;;30.22;100.00;97442.28;5132078;28;19990;-55
2022/06/19 12:33:45;;;;;;;;;;;;;;;30.53;100.00;97496.50;5131892;28;20025;-55
2022/06/19 12:36:12;;;;;;;;;;;;;;;30.39;100.00;97475.91;5132098;28;19927;-56
2022/06/19 12:38:38;;;;;;;;;;;;;;;29.87;100.00;97424.38;5131811;28;19933;-55
2022/06/19 12:41:16;;;;;;;;;;;;;;;30.64;100.00;97436.88;5131859;28;20313;-55
2022/06/19 12:43:49;;;;;;;;;;;;;;;30.43;100.00;97397.97;5131648;28;19927;-56
2022/06/19 12:46:21;;;;;;;;;;;;;;;30.13;100.00;97386.94;5131983;28;20492;-56